Portada
METAR-TAF:

METAR-TAF

Aeroports :

Mataram, Indonèsia

latitud: 08-45-29S, longitud: 116-16-35E, altitud: 97 m

Observació

L'informe es va fer fa 21 minuts, a les 22:30 UTC
Vent calma
Temperatura 24°C
Humitat 100%
Pressió 1010 hPa
Visibilitat: 3000 m
Escasses núvols a una alçada de 1600 ft
boirina

METAR: WADL 012230Z 00000KT 3000 BR FEW016 24/24 Q1010 TEMPO TL2300 BR

Hora: 05:51 (22:51 UTC)

Pronòstic

L'informe es va fer fa 5 hores i 51 minuts, a les 17:00 UTC
Pronòstic vàlid del 01 a les 18 UTC al 02 a les 18 UTC
Vent kt del Nord
Visibilitat: 7000 m
Núvols disperses a una alçada de 1600 ft
Temporalment
l' 01 a les 21 UTC al 01 a les 23 UTC
Visibilitat: 3000 m
boirina

TAF: WADL 011700Z 0118/0218 00000KT 7000 SCT016 TEMPO 0121/0123 3000 BR

Observacions i pronòstics meteorològics de més de 4000 aeroports (METAR i TAF).

Les estacions disponibles són els punts grocs i vermells al mapa.

Posi el ratolí al punt desitjat per veure el nom de l'estació.

Feu clic per veure les observacions i els pronòstics meteorològics.

Per canviar el mapa: feu clic els botons verds amb una creu de color negre per apropar; al botó verd amb un guió per allunyar la imatge; o en les fletxes verdes per a mapes adjacents.


METAR-TAF: